SMRA50 UAOL 210900
AAXX 21091
50136 32680 63402 11036 21195 40205 57008 86///=
50353 32980 23405 11052 21150 40180 57002 82///=
50434 32573 43203 11037 21213 40205 57006 84///=
50468 32980 43404 11040 21179 40167 52003 84///=
50527 32980 22904 11020 21232 40206 57012 82///=
50548 32580 23603 11004 21239 40173 57002 82///=
50557 32980 23607 11021 21215 40173 52004 82///=
50564 32980 30204 11037 21184 40162 52008 83///=
50603 32680 63407 10004 21164 40189 57011 86///=
50632 32580 63208 11027 21205 40192 57003 86///=
50658 32980 53408 11021 21215 40157 52012 85///=
50727 32/80 93406 11048 21204 40220 57001=
50745 32980 00204 10013 21211 40168 52003=
50756 32962 73606 11021 21178 40177 52017 87///=
50774 32980 83204 11040 21169 40129 52021 88///=
50788 42969 80206 11036 21120 40082 52007 88///=
50844 31976 00206 10014 21210 40171 52005 76075=
50854 32764 73405 10002 21185 40154 52014 87///=
50888 41942 83406 11057 21069 40071 52010 77000 88/// 333 92505=
50915 32580 63204 11018 21156 40248 57003 86///=
50949 32980 73603 11002 21149 40167 52020 87///=
50953 42979 83603 11038 21148 40147 52026 88/// 333 92508=
50963 41932 82202 11043 21058 40115 52020 77000 88/// 333 92502=
50968 41622 80401 11044 21064 40128 52034 77000 88/// 333 92509=
50978 41955 83206 11058 21090 40074 52022 77077 88/// 333 92507=
50983 41917 83409 11060 21078 40035 52012 77077 88/// 333 91117 91536 92506=
51053 32980 01103 10070 21060 40298 57008 333 00204=
51076 32973 01801 10046 21055 40316 57002 333 00304 92518=
51087 32980 02903 10046 21103 40305 57004 333 00305 92513=
51133 32979 00903 10113 21102 40247 57006 333 00201=
51156 32980 01404 10039 21143 40294 57001 333 00303=
51243 32980 01601 10071 21070 40293 57009 333 00301=
51288 32980 02902 10009 21139 38372 57002 333 00302 92501=
51334 32766 72502 10050 21033 40289 57004 87/// 333 00453=
51379 32974 01102 10066 21060 40277 57006 333 00201=
51431 32971 00701 10157 21023 40195 57013 333 00200=
51463 32980 00703 10042 21067 40280 54000 333 00201=
51467 31657 12906 10090 21180 38197 57012 70500 81/// 333 00152=
51495 32958 01802 10119 21229 40224 57014 333 00103=
51542 42680 20702 11087 21130 37567 57010 82/// 333 00054 92511=
51573 31955 73601 10158 21158 40223 57020 70500 87/// 333 00102=
51644 31949 72502 10133 21189 40193 57016 70600 87/// 333 00101=
51656 31930 72706 10131 21205 40201 57016 72000 87/// 333 00102=
51709 31736 71103 10139 21075 40155 57020 70500 87/// 333 00102=
51711 31/13 90704 10071 21138 38005 57007 70600 333 00001=
51716 31957 71102 10143 21169 40171 57014 70600 87/// 333 00101=
51730 31744 73202 10153 21204 40181 57018 70600 87/// 333 00103=
51747 32965 71104 10147 40193 57015 87/// 333 00302=
51765 31955 71602 10154 21203 40211 57018 70500 87/// 333 00201=
51777 32964 70703 10121 21186 40219 57013 87/// 333 00452=
51811 31924 73202 10142 21105 40161 57017 70500 87/// 333 00204=
51818 31910 73601 10126 21142 40165 57015 70500 87/// 333 00302=
51828 31/06 93402 10116 21142 40170 57011 70500 333 00400=
51886 32880 70205 10055 21176 37082 57014 87/// 333 00252=
52112 32980 03402 10119 21200 40250 57019 333 00203=
52203 32974 01602 10123 21243 40223 57010 333 00103=
52267 32980 01103 10073 21223 40258 57014 333 00002=
52323 32980 00703 10046 21269 38238 57008 333 00102=
52378 32980 00902 10074 21263 40270 57012 333 05102=
52418 32980 20202 10134 21280 40206 57011 82/// 333 00102=
52436 32977 10705 10085 21254 38473 40240 57008 81/// 333 00004=
52495 32980 00702 10053 21228 40270 57010 333 00003=
52533 32980 00403 10075 21211 40237 57008 333 00004=
52602 32980 73208 10056 21364 37235 57016 87/// 333 00100=
52652 32980 23603 10099 21280 40223 57006 82/// 333 05106=
52681 32980 00402 10085 21193 40218 57012 333 05203=
52713 32680 72905 10043 21226 36874 57018 87/// 333 00100=
52737 32680 72004 10077 21190 37026 57026 87/// 333 00251=
52754 32980 71603 10018 21148 36751 57012 87/// 333 00254=
52787 32979 73612 11030 21234 37004 52002 87/// 333 00106=
52818 32980 73203 10081 21206 37195 57023 87/// 333 00100=
52836 32680 62701 10059 21173 36859 57017 86/// 333 00101=
52866 32969 71405 10099 21126 37530 57022 87/// 333 00204=
52908 32677 72212 11040 21145 35722 57012 87/// 333 00153=
52955 32980 30402 10071 21170 36925 57015 83/// 333 00251=
52983 32966 30702 10105 21167 38083 57012 83/// 333 05104=
52996 32476 71405 10037 21178 37545 57007 87/// 333 00105=
53068 32780 52903 10014 21175 40268 57010 85/// 333 00505=
53083 32580 23206 11017 21201 40264 57005 82/// 333 00604=
53149 32980 32906 11003 21231 40289 57004 83/// 333 00504=
53192 32580 62909 11007 21188 40254 57005 86///=
53231 32680 23203 11002 21205 38516 57002 82/// 333 00202=
53276 32680 52904 11012 21137 40284 57008 85///=
53336 32/80 93405 10006 21204 40286 57003 333 00304=
53352 32680 32705 11011 21177 40293 57006 83///=
53391 32680 63204 11044 21143 40291 57002 86/// 333 00951=
53463 32680 72203 10021 21137 40266 57007 87/// 333 00752=
53480 32680 10702 11012 21158 40277 57011 81///=
53487 32580 03403 10037 21136 40259 57013=
53502 32980 03202 10067 21198 40268 57011 333 00101=
53513 32680 00903 10046 21115 40272 57011 333 00301=
53529 32980 02904 10049 21196 40266 57009 333 00302=
53543 32980 03401 10027 21175 40264 57009=
53564 32980 10701 10052 21159 40256 57015 81/// 333 00651=
53588 32980 52708 11048 21186 37773 54000 85///=
53593 32980 02905 10050 21139 40247 57008=
53614 32966 03601 10077 21190 40238 57015 333 00351=
53646 32980 63204 10058 21205 40246 57014 86/// 333 00400=
53673 32980 20202 10074 21168 40227 57020 82///=
53698 32980 20703 10131 21147 40207 57012 82///=
53705 32968 70404 10093 21187 40217 57011 87/// 333 00001=
53723 32980 70901 10057 21197 40248 57012 87/// 333 00352=
53764 32980 22904 10090 21171 40223 57010 82///=
53772 32980 61803 10101 21162 40209 57013 86///=
53787 32980 73402 10084 21240 40208 57008 87///=
53798 32980 70703 10117 21112 40216 57001 87///=
53845 32980 40703 10092 21188 40220 57009 84/// 333 00551=
53863 32960 70203 10103 21160 40204 57013 87///=
53898 32964 70405 10117 21118 40215 54000 87///=
53915 32780 70902 10076 21190 40199 57012 87/// 333 00102=
53923 32980 72901 10074 21223 40207 57012 87///=
53959 32960 82001 10109 21195 40215 57010 88///=
53975 32980 72002 10107 21186 40201 57008 87///=
54012 32680 23205 11037 21142 40255 57004 82///=
54026 32680 42904 10024 21130 40200 52008 84///=
54027 32980 43407 11014 21121 40232 52010 84/// 333 91123 91532=
54049 32979 73604 11005 21144 40184 52020 87///=
54094 41942 83606 11053 21077 40090 52038 77000 88/// 333 92505=
54096 41956 83404 11065 21091 40051 52021 77000 88/// 333 92509=
54102 42680 73406 10000 21159 40251 57008 87///=
54115 32680 73407 11016 21161 40241 57001 87///=
54135 32980 63203 10020 21081 40197 52005 86///=
54157 42780 73203 11007 21126 40187 52023 87///=
54161 41964 73203 11022 21107 40173 52026 70070 87///=
54186 41573 73408 11039 21080 40100 52046 72277 87///=
54208 32580 43204 11026 21170 40268 57005 84///=
54218 32680 63404 10004 21119 40252 52003 86///=
54226 32680 13204 10014 21143 40228 52011 81///=
54236 32580 23205 10024 21083 40202 52014 82/// 333 91117 91532=
54259 41680 82502 11015 21085 40188 52028 77077 88///=
54273 41680 82904 11030 21065 40151 52044 77077 88///=
54292 41655 72910 11007 21042 40065 52049 77070 87/// 333 91121 91529=
54308 32680 13208 10033 21159 40245 57001 81///=
54311 32580 53402 11001 21144 40251 52008 85///=
54324 32980 03607 10051 21143 40222 52006 333 91117 91536=
54337 32980 03404 10059 21137 40216 52011=
54342 42980 23404 10020 21119 40201 52023 82///=
54346 42580 23405 10005 21122 40203 52023 82///=
54374 41678 72704 11023 21089 40155 52040 70076 87///=
54377 42578 60404 11006 21089 40164 52042 86///=
54386 41580 82205 11041 21083 40100 52061 77077 88///=
54401 32980 03404 10049 21196 40246 57005=
54405 32980 03205 10068 21180 40233 57003=
54423 32580 23406 10063 21156 40223 52001 82///=
54436 32780 10204 10074 21141 40212 57003 81///=
54471 32780 50205 10043 21060 40209 52011 85/// 333 91118 91502=
54493 32680 73203 11001 21088 40176 52035 87///=
54497 32567 23408 10024 21078 40171 52033 82/// 333 91119 91532=
54511 32980 23202 10122 21174 40210 57006 82///=
54527 32980 23605 10117 21149 40212 57005 82///=
54534 32980 00203 10105 21143 40211 57002=
54539 32980 50203 10104 21122 40211 52004 85///=
54602 32980 20703 10124 21127 40213 57009 82///=
54618 32980 63602 10117 21133 40220 57006 86///=
54662 32980 23607 10045 21070 40201 52011 82/// 333 91121 91536=
54715 32980 40205 10105 21122 40222 57004 84///=
54725 32980 80204 10100 21102 40220 57001 88///=
54751 32980 50205 10040 21026 40216 52009 85/// 333 91117 91536=
54753 32976 70404 10056 21032 40218 52003 87///=
54776 32980 73414 10035 21025 40184 52025 87/// 333 91125 91534=
54808 32980 80704 10119 21103 40218 57003 88///=
54823 32980 70704 10094 21096 40219 52001 87///=
54826 32980 70206 11029 21121 38453 52004 87///=
54836 32980 70202 10091 21084 40207 52008 87///=
54843 32980 70404 10075 21052 40219 52009 87///=
54857 32980 63408 10077 21044 40197 52008 86/// 333 91118 91536=
54863 32980 73607 10062 21051 40202 52013 87///=
54909 32980 80204 10112 21081 40214 52002 88///=
54916 32980 83604 10117 21077 40207 52005 88///=
54929 32980 83602 10125 21075 40192 52007 88///=
54945 32980 70405 10081 21017 40203 52014 87///=
55228 32780 22507 10001 21280 36022 57012 82/// 333 00100=
55279 32780 52904 10002 21279 35679 57019 85/// 333 00102=
55299 32780 82505 10010 21244 35821 57016 88/// 333 00102 92501=
55472 32780 42912 10025 21316 35761 57053 84/// 333 00302=
55578 32780 32502 10113 21295 36333 57032 83/// 333 00102=
55591 32680 82503 10116 21231 36475 57026 88/// 333 00103=
55664 32780 12512 10074 21235 35989 57023 81/// 333 00101 91119 91525=
55696 32680 72907 10077 21158 36305 57015 87/// 333 00251=
55773 32680 52005 10014 21084 36002 57014 85/// 333 00101=
56004 32680 72904 11029 21143 35782 57013 87/// 333 00153=
56018 32780 72702 11003 21090 36152 57013 87/// 333 00202=
56021 32580 73204 11001 21137 36033 57016 87/// 333 00151=
56029 32680 82504 10048 21101 36417 57008 88/// 333 00251=
56033 42580 51601 11033 21120 35986 57014 85/// 333 00101 92505=
56046 42680 72903 10000 21092 36220 57002 87/// 333 00355=
56065 32676 72702 10032 21108 36582 57006 87/// 333 00354=
56079 31780 70905 10022 21052 36643 57013 70060 87/// 333 00457=
56080 32580 82002 10060 21099 37104 57012 88/// 333 00104=
56096 32780 72502 10169 21055 40126 57024 87/// 333 00752=
56106 32680 72205 10035 21180 36181 57010 87/// 333 00101=
56116 31680 60902 10029 21084 36312 57014 70080 86/// 333 00201=
56137 32680 81602 10098 21109 36752 57013 88/// 333 00251=
56144 32780 82203 10112 21162 36803 57016 88/// 333 00101=
56146 32772 72007 10087 21130 36674 57013 87/// 333 00253=
56152 32780 53206 10039 21134 36267 57009 85/// 333 00252=
56167 32780 72502 10153 21188 36975 57023 87/// 333 00002=
56172 32680 71404 10142 21078 37269 54000 87/// 333 00355=
56182 41680 83405 10087 21014 37111 57009 70060 88/// 333 00455=
56187 32974 70402 10162 20019 40119 57005 87/// 333 00956=
56196 32974 80704 10172 21015 40115 57005 88/// 333 00956=
56247 32780 83601 10166 21110 37350 57021 88/// 333 00100=
56257 32680 72903 10061 21158 36232 57014 87/// 333 00001=
56287 32970 80901 10180 20035 40106 57011 88/// 333 00855=
56312 32680 81105 10091 21048 37044 57030 88/// 333 00151=
56357 32680 62205 10074 21161 36399 57016 86/// 333 05103=
56374 32680 71105 10097 21005 37360 57003 87/// 333 00254 91118 91509=
56385 41/02 91403 10031 20013 36978 57011 74540 333 00256=
56444 32770 60703 10059 21048 36789 57011 86/// 333 00151=
56462 32680 61609 10150 21098 37062 57014 86/// 333 00100=
56492 32779 53604 10214 20083 40079 57010 85/// 333 00752=
56571 32680 12003 10257 21048 38302 57027 81/// 333 05103=
56586 32772 30202 10193 20043 37980 57011 83/// 333 00153=
56651 32680 62904 10154 21045 37610 57018 86/// 333 00000=
56671 32780 22004 10221 21033 38142 57024 82/// 333 05104=
56684 32567 20908 10190 21045 37771 57010 82/// 333 00005 91120 91509=
56691 32580 52003 10192 21030 37714 57013 85/// 333 00102=
56739 32573 72203 10185 20054 38292 57023 87/// 333 00002=
56748 32580 33204 10218 20009 38324 57027 83/// 333 05104=
56751 32770 21802 10177 20004 37990 57022 82/// 333 05103=
56763 32680 22205 10294 21009 40012 57029 82/// 333 05303=
56768 32680 22206 10218 20004 38139 57019 82/// 333 05103=
56778 32580 42205 10215 20001 38072 57013 84/// 333 00003=
56786 32580 12504 10229 21027 38043 57018 81/// 333 05103=
56838 32673 52704 10280 20078 40100 57028 85/// 333 00001=
56886 32678 02510 10241 20004 38241 57019 333 00000=
56946 32680 22202 10276 20046 40086 57025 82/// 333 00007=
56951 32780 22904 10249 20004 38472 57024 82/// 333 00002=
56954 32571 32705 10282 20051 40088 57024 83/// 333 00100=
56959 32769 22703 10343 20089 40049 57032 82/// 333 00101=
56964 32576 32504 10272 20037 40074 57028 83/// 333 00100=
56966 32780 02506 10343 20008 40027 57034 333 00100=
56969 32565 01804 10326 20088 40062 57030 333 00051=
56977 32570 22503 10266 20061 40068 57029 82/// 333 00051=
56985 32580 02506 10265 20055 40043 57020 333 00000=
57014 32980 71403 10126 21063 40173 57022 87///=
57025 32978 71105 10092 21030 40211 57008 87///=
57046 41474 80702 11028 21104 37927 57004 77077 88/// 333 00460=
57067 41472 82701 10039 20013 40236 57002 76060 88///=
57071 32967 82002 10122 21107 40205 57005 88///=
57083 32980 81102 10111 21087 40219 52003 88///=
57127 32980 70703 10127 20031 40180 57007 87///=
57131 32973 80901 10115 21068 40216 57013 88///=
57178 32877 80404 10120 21046 40210 52011 88///=
57193 32975 80203 10111 21046 40215 52011 88///=
57237 41880 83405 10088 20024 40164 52006 76066 88///=
57245 41574 80402 10105 20046 40204 57005 76066 88/// 333 01766=
57259 41569 81602 10073 20061 40216 52007 76066 88///=
57265 41668 82702 10095 20066 40216 52002 70060 88///=
57279 41961 80705 10090 20017 40211 52009 76060 88///=
57290 32961 83603 10097 21026 40213 52006 88///=
57297 31969 83606 10102 21009 40199 52014 76060 88///=
57306 41980 80403 10134 20085 40126 57013 72166 88///=
57328 41880 80204 10151 20059 40112 57001 72065 88///=
57348 41560 83605 10117 20086 40140 52001 76260 88///=
57378 41674 83407 10088 20048 40186 52014 76066 88/// 333 91117 91536=
57399 31966 80211 10118 20052 40152 52012 76050 88///=
57411 41480 83605 10116 20086 40118 57002 76066 88///=
57426 32776 80404 10125 20104 40106 52008 88/// 333 00762=
57447 41474 80205 10118 20095 40136 52008 76060 88///=
57461 41466 83401 10084 20048 40188 52007 72165 88///=
57476 41873 83607 10097 20037 40182 52018 70060 88///=
57494 31562 80208 10121 20046 40154 52018 76060 88///=
57503 32973 60407 10151 20072 40108 57002 86///=
57516 32465 83605 10152 20112 40091 52008 88///=
57554 41567 80704 10133 20088 40137 52006 72160 88///=
57584 32964 83608 10138 20052 40137 52026 88///=
57598 41758 80405 10172 20123 40110 52010 70060 88///=
57604 32968 03406 10207 20077 40082 57004=
57633 32561 80203 10127 20106 40102 52001 88/// 333 00663=
57655 41557 80705 10136 20074 40131 52018 71000 88///=
57662 42680 83605 10098 20052 40154 52025 88/// 333 91123 91534=
57687 42360 83410 10126 20105 40102 52007 88/// 333 91120 91534=
57707 32563 53603 10204 20071 38421 57012 85/// 333 00557=
57712 32568 23404 10242 20078 40035 57015 82///=
57731 32569 20703 10227 20148 40049 52009 82///=
57745 41747 80403 10156 20150 40089 52016 76050 88///=
57766 41757 70208 10157 20137 40085 52011 72100 87/// 333 91118 91502=
57776 41/00 93408 10072 20072 40098 57001 74540=
57793 41409 80903 10167 20154 40098 52013 76280 88///=
57799 41468 80402 10204 20199 40045 57027 76060 88///=
57816 32580 63203 10251 20037 40016 57011 86/// 333 00252=
57832 31560 60204 10185 20150 40063 52028 70080 86///=
57845 32658 22004 10284 20176 40021 57011 82///=
57853 41473 80403 10197 20149 40071 52028 72160 88///=
57866 32558 60411 10224 20167 40054 52011 86///=
57902 32580 12206 10263 20009 40005 57024 81/// 333 00000=
57916 32680 01601 10335 20067 40004 57017=
57922 32577 22005 10267 20082 40017 57013 82///=
57932 32662 21402 10318 20145 40005 57014 82///=
57957 32566 22202 10300 20197 40037 57019 82///=
57972 32780 81608 10277 20176 40043 57010 88/// 333 91118 91516=
57993 32664 02503 10304 20164 40048 57019=
58027 32980 83402 10127 21049 40193 52009 88///=
58040 32966 70705 10098 20029 40196 52012 87///=
58102 32676 83607 10116 21033 40202 52010 88///=
58141 32971 80704 10109 20017 40191 52014 88///=
58150 32567 70207 10086 20038 40194 52019 87///=
58203 32973 83406 10113 20026 40196 52008 88///=
58208 41659 83401 10096 20054 40189 52015 76066 88///=
58221 32966 70704 10134 20070 40179 52007 87///=
58238 32963 80704 10131 20040 40176 52024 88///=
58251 32964 80206 10105 20018 40183 52017 88///=
58265 31467 80208 10100 20076 40174 52018 70060 88///=
58314 31544 80202 10130 20085 40167 52019 76000 88///=
58321 32666 80407 10133 20059 40162 52011 88///=
58338 41433 80706 10138 20119 40150 52014 72160 88///=
58345 41455 80403 10120 20092 40175 52033 76066 88///=
58362 41857 80202 10102 20083 40179 52031 76065 88///=
58424 31549 80404 10172 20127 40133 52003 71000 88///=
58437 41/00 91102 10060 20059 38125 52002 76054=
58457 41438 80204 10137 20121 40162 52022 76066 88///=
58472 41459 80211 10099 20091 40159 52017 76065 88///=
58477 41456 73402 10123 20097 40159 52013 71000 87///=
58506 41/01 90715 10083 20083 40118 52009 76064 333 91120 91507=
58527 41655 80201 10157 20147 40108 57008 71060 88///=
58543 41439 80704 10128 20120 40141 52016 76066 88///=
58556 41555 80401 10140 20126 40145 52007 76065 88///=
58569 41447 70407 10127 20109 40143 52009 71080 87///=
58606 41655 80202 10166 20151 40102 57003 76060 88///=
58633 41648 80406 10151 20151 40126 52012 76265 88///=
58646 41669 82901 10178 20141 40123 52007 70065 88///=
58652 41567 80703 10149 20119 40137 52015 76050 88///=
58666 41445 80211 10120 20109 40133 52011 71065 88/// 333 91121 91536=
58715 41377 82903 10201 20171 40074 52002 70060 88/// 333 91118 91529=
58725 32677 63202 10236 20161 40073 52003 86///=
58730 41480 30202 10197 20178 40086 52002 72160 83///=
58731 41260 83603 10183 20181 40093 54000 76060 88///=
58752 41657 80702 10157 20132 40117 52002 70065 88///=
58754 41542 83201 10181 20157 40112 52017 71060 88///=
58813 32665 70906 10225 20176 40062 57001 87///=
58834 32666 62002 10309 20153 40052 57008 86///=
58847 32658 61405 10275 20198 40065 57004 86///=
58911 32772 21803 10291 20170 40063 57014 82///=
58921 32660 51101 10282 20171 40060 57009 85///=
58926 32760 42701 10311 20129 40066 57004 84///=
58931 32369 32905 10194 20096 38329 54000 83/// 333 91121 91527=
58944 32570 72005 10212 20184 40088 57002 87///=
58968 32561 20702 10288 20216 30050 40085 53001 82100=
58974 32965 42803 10241 20214 39982 40103 50002 84010=
59007 32980 22506 10284 21026 40023 57022 82///=
59023 32561 41803 10310 20194 40013 57019 84///=
59046 32574 31806 10274 20205 40042 57019 83///=
59058 32670 71804 10274 20212 40058 57014 87///=
59072 32672 81801 10275 20215 40062 57018 88///=
59082 32580 61807 10285 20185 40065 57016 86///=
59087 32/72 91802 10283 20200 40072 57019=
59096 32677 51805 10270 20183 40076 57010 85///=
59102 32564 61804 10276 20178 40074 57012 86///=
59117 32580 22002 10306 20183 40073 57018 82///=
59134 32962 01603 10239 20196 40086 57009=
59158 32965 02202 10284 20207 30001 40098 54000=
59209 32968 01804 10282 20133 40026 57020=
59211 32558 01102 10338 20175 40003 57025=
59254 32665 21803 10288 20218 40051 57024 82///=
59265 32871 31101 10294 20203 40057 57024 83///=
59278 32580 21404 10294 20213 40073 57013 82///=
59287 32965 61605 10273 20211 40081 57017 86///=
59293 32580 22203 10297 20194 40079 57015 82///=
59316 42673 11402 10271 20220 40091 57013 81///=
59358 32665 11902 10275 20215 30080 40111 55006 81100=
59417 31555 02503 10311 20204 40041 57026 70500=
59431 32965 01105 10293 20223 40042 57027=
59456 32980 02204 10285 20210 40071 57014=
59493 32580 62204 10259 20213 40095 57013 86///=
59501 31580 22004 10254 20221 40100 57014 70050 82///=
59559 32565 42903 10276 20221 30076 40104 56010 84500=
59562 32670 10502 10277 20227 30064 40075 55012 81100=
59567 32460 72409 10234 20234 39734 40106 55004 876//=
59632 32580 42008 10272 20232 40057 57024 84///=
59644 32959 02202 10275 20213 40067 57025=
59658 32563 10703 10290 20234 40071 57017 81///=
59663 32480 61804 10256 20236 40090 57012 86///=
59673 32562 52204 10267 20227 40089 57014 85///=
59758 32480 23603 10302 20170 40066 57018 82///=
59792 32560 22202 10275 20240 30105 40107 57017 82100=
59838 32971 11808 10298 20237 40064 57022 81///=
59845 32568 43403 10337 20215 40064 57019 84///=
59855 32580 21803 10292 20222 40073 57015 82///=
59948 32373 71604 10242 20217 40099 57016 87///=
59981 32577 11602 10301 20238 40096 57017 81///=
59985 32579 21604 10299 20241 40094 57017 82///=
59997 32460 20904 10308 20254 30087 40095 57022 82150=



SMUS50 KWBC 210900
AAXX 21094